Time;durP1;ratioP1;P1;durP2;ratioP2;P2;SDS_P1;SDS_P2;PMS_P1;PMS_P2;Temp;Humidity;BMP_temperature;BMP_pressure;BME280_temperature;BME280_humidity;BME280_pressure;Samples;Min_cycle;Max_cycle;Signal;HPM_P1;HPM_P2
2021/09/24 00:02:55;;;;;;;6.72;1.75;;;;;;;12.56;100.00;100028.91;5054313;28;20461;-48
2021/09/24 00:05:58;;;;;;;1.40;1.20;;;;;;;12.52;100.00;100023.50;5054374;28;20419;-48
2021/09/24 00:09:01;;;;;;;1.02;0.98;;;;;;;12.49;100.00;100012.53;5054475;28;20477;-48
2021/09/24 00:12:05;;;;;;;3.83;1.60;;;;;;;12.44;100.00;100008.41;5054395;28;20396;-48
2021/09/24 00:15:11;;;;;;;1.88;0.75;;;;;;;12.33;100.00;100004.66;5054375;28;20493;-48
2021/09/24 00:18:14;;;;;;;1.02;0.93;;;;;;;12.29;100.00;99996.47;5042192;28;20095;-48
2021/09/24 00:21:18;;;;;;;1.42;0.57;;;;;;;12.22;100.00;99993.31;5054123;28;20044;-48
2021/09/24 00:24:21;;;;;;;1.00;0.70;;;;;;;12.15;100.00;99978.50;5054020;28;20041;-48
2021/09/24 00:27:24;;;;;;;1.50;1.40;;;;;;;12.10;100.00;99981.22;5054086;28;20121;-48
2021/09/24 00:30:26;;;;;;;4.82;1.00;;;;;;;12.09;100.00;99972.06;5053817;28;20044;-48
2021/09/24 00:33:29;;;;;;;6.15;1.27;;;;;;;12.04;100.00;99969.94;5053946;28;20055;-48
2021/09/24 00:36:33;;;;;;;1.33;0.60;;;;;;;11.96;100.00;99971.59;5065850;28;20618;-48
2021/09/24 00:39:35;;;;;;;9.90;1.35;;;;;;;11.92;100.00;99965.44;5073882;28;20129;-48
2021/09/24 00:42:38;;;;;;;1.80;0.88;;;;;;;11.85;100.00;99954.66;5078580;28;20093;-48
2021/09/24 00:45:41;;;;;;;0.95;0.90;;;;;;;11.80;100.00;99951.78;5068857;28;20063;-48
2021/09/24 00:48:46;;;;;;;1.58;1.40;;;;;;;11.79;100.00;99955.81;5053736;28;20399;-48
2021/09/24 00:51:49;;;;;;;3.90;1.75;;;;;;;11.75;100.00;99953.22;5053361;28;20448;-48
2021/09/24 00:54:53;;;;;;;6.70;0.47;;;;;;;11.80;100.00;99940.63;5053603;28;20102;-48
2021/09/24 00:57:56;;;;;;;5.50;0.93;;;;;;;11.83;100.00;99951.56;5053423;28;20089;-48
2021/09/24 01:00:59;;;;;;;0.85;0.40;;;;;;;11.78;100.00;99943.88;5053331;28;20044;-48
2021/09/24 01:04:01;;;;;;;2.88;0.88;;;;;;;11.71;100.00;99949.09;5053048;28;20504;-48
2021/09/24 01:07:05;;;;;;;1.13;1.02;;;;;;;11.60;100.00;99944.06;5052979;28;20048;-48
2021/09/24 01:10:10;;;;;;;4.57;2.28;;;;;;;11.54;100.00;99939.63;5053159;28;20071;-48
2021/09/24 01:13:13;;;;;;;1.70;0.98;;;;;;;11.54;100.00;99943.19;5053348;28;20659;-48
2021/09/24 01:16:16;;;;;;;1.45;1.02;;;;;;;11.52;100.00;99937.28;5053036;28;20332;-48
2021/09/24 01:19:19;;;;;;;1.90;1.17;;;;;;;11.56;100.00;99937.91;5053223;28;20098;-48
2021/09/24 01:22:22;;;;;;;3.40;1.23;;;;;;;11.42;100.00;99939.41;5052938;28;20397;-48
2021/09/24 01:25:25;;;;;;;2.38;1.02;;;;;;;11.46;100.00;99936.44;5053116;28;20075;-48
2021/09/24 01:28:27;;;;;;;0.95;0.90;;;;;;;11.45;100.00;99920.97;5052829;28;20554;-48
2021/09/24 01:31:31;;;;;;;8.82;1.17;;;;;;;11.38;100.00;99924.13;5053080;28;20067;-48
2021/09/24 01:34:33;;;;;;;3.45;0.80;;;;;;;11.35;100.00;99919.50;5052999;28;20043;-48
2021/09/24 01:37:37;;;;;;;1.83;0.50;;;;;;;11.33;100.00;99916.41;5052867;28;20039;-48
2021/09/24 01:40:40;;;;;;;4.45;1.05;;;;;;;11.28;100.00;99911.53;5052453;28;20039;-48
2021/09/24 01:43:42;;;;;;;0.73;0.32;;;;;;;11.25;100.00;99912.47;5052645;28;20060;-48
2021/09/24 01:46:46;;;;;;;1.30;1.00;;;;;;;11.18;100.00;99919.19;5052576;28;20090;-48
2021/09/24 01:49:48;;;;;;;0.95;0.47;;;;;;;11.14;100.00;99903.91;5052483;28;20048;-48
2021/09/24 01:52:51;;;;;;;0.50;0.50;;;;;;;11.09;100.00;99898.97;5039997;28;20175;-48
2021/09/24 01:55:54;;;;;;;2.55;0.73;;;;;;;10.96;100.00;99901.28;5052459;28;20409;-48
2021/09/24 01:58:57;;;;;;;1.05;0.60;;;;;;;10.93;100.00;99891.84;5052370;28;20043;-48
2021/09/24 02:02:00;;;;;;;1.42;1.15;;;;;;;10.93;100.00;99885.50;5052767;28;20049;-48
2021/09/24 02:05:04;;;;;;;3.15;2.85;;;;;;;10.90;100.00;99880.88;5052707;28;20094;-48
2021/09/24 02:08:07;;;;;;;7.18;0.80;;;;;;;10.96;100.00;99879.00;5052730;28;20039;-48
2021/09/24 02:11:13;;;;;;;1.08;1.00;;;;;;;10.97;100.00;99875.72;5051382;28;20052;-48
2021/09/24 02:14:16;;;;;;;1.00;0.75;;;;;;;11.03;100.00;99870.25;5052052;28;20075;-48
2021/09/24 02:17:19;;;;;;;2.10;1.08;;;;;;;10.98;100.00;99870.94;5051620;28;20072;-48
2021/09/24 02:20:22;;;;;;;2.90;1.25;;;;;;;10.95;100.00;99877.44;5051909;28;20126;-48
2021/09/24 02:23:25;;;;;;;0.70;0.60;;;;;;;10.91;100.00;99872.06;5051845;28;20558;-48
2021/09/24 02:26:28;;;;;;;2.08;0.90;;;;;;;10.88;100.00;99875.00;5051973;28;20433;-48
2021/09/24 02:29:31;;;;;;;1.17;1.17;;;;;;;10.83;100.00;99867.34;5051862;28;20612;-48
2021/09/24 02:32:34;;;;;;;1.50;1.08;;;;;;;10.81;100.00;99867.03;5051199;28;20448;-48
2021/09/24 02:35:38;;;;;;;1.02;0.80;;;;;;;10.78;100.00;99854.06;5051224;28;20040;-48
2021/09/24 02:38:41;;;;;;;2.67;1.55;;;;;;;10.76;100.00;99854.56;5051650;28;20049;-48
2021/09/24 02:41:44;;;;;;;0.50;0.50;;;;;;;10.78;100.00;99845.69;5052075;28;20040;-48
2021/09/24 02:44:47;;;;;;;2.95;0.95;;;;;;;10.80;100.00;99838.41;5051881;28;20512;-48
2021/09/24 02:47:50;;;;;;;4.80;1.27;;;;;;;10.78;100.00;99840.13;5052031;28;20535;-48
2021/09/24 02:50:53;;;;;;;1.88;1.00;;;;;;;10.79;100.00;99836.09;5052535;28;20052;-48
2021/09/24 02:53:55;;;;;;;0.65;0.43;;;;;;;10.78;100.00;99842.91;5051994;28;20036;-48
2021/09/24 02:56:58;;;;;;;3.15;1.33;;;;;;;10.63;100.00;99838.06;5052248;28;20048;-48
2021/09/24 03:00:05;;;;;;;1.25;1.05;;;;;;;10.54;100.00;99838.16;5052119;28;20126;-48
2021/09/24 03:03:09;;;;;;;0.93;0.88;;;;;;;10.51;100.00;99839.09;5051787;28;20047;-48
2021/09/24 03:06:12;;;;;;;0.95;0.65;;;;;;;10.50;100.00;99828.44;5054556;28;20119;-48
2021/09/24 03:09:14;;;;;;;1.55;0.77;;;;;;;10.40;100.00;99833.31;5055790;28;20583;-48
2021/09/24 03:12:17;;;;;;;2.17;0.93;;;;;;;10.37;100.00;99834.25;5055502;28;20099;-48
2021/09/24 03:15:20;;;;;;;0.77;0.77;;;;;;;10.38;100.00;99830.22;5055673;28;20187;-48
2021/09/24 03:18:23;;;;;;;1.45;0.82;;;;;;;10.39;100.00;99819.88;5055328;28;20587;-48
2021/09/24 03:21:26;;;;;;;1.08;0.73;;;;;;;10.33;100.00;99816.94;5055423;28;20087;-47
2021/09/24 03:24:29;;;;;;;2.90;1.10;;;;;;;10.38;100.00;99827.44;5055314;28;20044;-48
2021/09/24 03:27:34;;;;;;;0.68;0.68;;;;;;;10.36;100.00;99831.94;5055532;28;20508;-47
2021/09/24 03:30:37;;;;;;;3.10;1.35;;;;;;;10.34;100.00;99826.84;5055324;28;20043;-47
2021/09/24 03:33:40;;;;;;;4.88;1.40;;;;;;;10.28;100.00;99819.63;5055120;28;20095;-47
2021/09/24 03:36:43;;;;;;;2.10;0.80;;;;;;;10.24;100.00;99827.41;5054893;28;20083;-47
2021/09/24 03:39:46;;;;;;;1.08;0.50;;;;;;;10.30;100.00;99829.06;5054929;28;20079;-47
2021/09/24 03:42:49;;;;;;;3.83;1.15;;;;;;;10.44;100.00;99828.31;5054937;28;20048;-47
2021/09/24 03:45:52;;;;;;;3.00;0.55;;;;;;;10.60;100.00;99825.13;5054916;28;20082;-48
2021/09/24 03:48:55;;;;;;;0.63;0.63;;;;;;;10.84;100.00;99813.16;5054628;28;20047;-48
2021/09/24 03:52:00;;;;;;;4.60;0.95;;;;;;;10.99;100.00;99811.91;5054503;28;20512;-47
2021/09/24 03:55:03;;;;;;;1.33;0.47;;;;;;;11.11;100.00;99812.91;5054873;28;20190;-48
2021/09/24 03:58:07;;;;;;;3.97;0.90;;;;;;;11.21;100.00;99817.13;5054564;28;20043;-48
2021/09/24 04:01:10;;;;;;;2.95;1.38;;;;;;;11.23;100.00;99814.63;5054376;28;20120;-48
2021/09/24 04:04:13;;;;;;;2.35;1.23;;;;;;;11.19;100.00;99809.25;5054757;28;20052;-47
2021/09/24 04:07:18;;;;;;;2.38;0.98;;;;;;;11.17;100.00;99789.44;5054508;28;20044;-47
2021/09/24 04:10:22;;;;;;;4.45;0.90;;;;;;;11.15;100.00;99785.59;5054279;28;20440;-47
2021/09/24 04:13:24;;;;;;;5.85;1.70;;;;;;;11.13;100.00;99788.84;5054176;28;20040;-47
2021/09/24 04:16:27;;;;;;;7.70;1.73;;;;;;;11.18;100.00;99790.97;5053811;28;20064;-47
2021/09/24 04:19:30;;;;;;;2.05;1.17;;;;;;;11.19;100.00;99786.16;5054331;28;20076;-47
2021/09/24 04:22:33;;;;;;;5.47;2.05;;;;;;;11.32;100.00;99778.28;5053873;28;20044;-47
2021/09/24 04:25:36;;;;;;;0.75;0.75;;;;;;;11.30;100.00;99775.94;5054136;28;20055;-47
2021/09/24 04:28:40;;;;;;;0.70;0.60;;;;;;;11.22;100.00;99796.34;5054164;28;20075;-47
2021/09/24 04:31:42;;;;;;;1.45;1.00;;;;;;;11.28;100.00;99800.00;5053998;28;20091;-47
2021/09/24 04:34:45;;;;;;;2.70;0.77;;;;;;;11.31;100.00;99804.59;5053802;28;20044;-47
2021/09/24 04:37:48;;;;;;;1.52;1.40;;;;;;;11.35;100.00;99813.53;5053981;28;20049;-47
2021/09/24 04:40:51;;;;;;;2.47;0.80;;;;;;;11.47;100.00;99806.91;5054052;28;20055;-47
2021/09/24 04:43:54;;;;;;;0.80;0.80;;;;;;;11.54;100.00;99798.16;5053772;28;20164;-47
2021/09/24 04:46:56;;;;;;;0.68;0.52;;;;;;;11.59;100.00;99797.47;5053485;28;20540;-47
2021/09/24 04:49:59;;;;;;;2.00;1.23;;;;;;;11.59;100.00;99789.09;5054174;28;20044;-47
2021/09/24 04:53:03;;;;;;;2.38;1.02;;;;;;;11.62;100.00;99799.28;5052918;28;20068;-47
2021/09/24 04:56:05;;;;;;;4.63;1.67;;;;;;;11.60;100.00;99799.00;5053877;28;20043;-47
2021/09/24 04:59:08;;;;;;;1.90;1.20;;;;;;;11.61;100.00;99788.63;5053495;28;20051;-47
2021/09/24 05:02:14;;;;;;;5.47;1.60;;;;;;;11.61;100.00;99777.47;5053572;28;20536;-47
2021/09/24 05:05:17;;;;;;;0.30;0.22;;;;;;;11.68;100.00;99777.06;5053145;28;20388;-47
2021/09/24 05:08:20;;;;;;;2.70;1.13;;;;;;;11.73;100.00;99771.59;5053547;28;20413;-47
2021/09/24 05:11:23;;;;;;;1.23;0.65;;;;;;;11.87;100.00;99778.34;5053235;28;20079;-47
2021/09/24 05:14:26;;;;;;;2.08;0.90;;;;;;;11.90;100.00;99775.38;5053332;28;20055;-47
2021/09/24 05:17:28;;;;;;;3.80;0.90;;;;;;;11.90;100.00;99782.97;5052959;28;20047;-47
2021/09/24 05:20:31;;;;;;;2.53;1.23;;;;;;;11.91;100.00;99785.28;5053071;28;20397;-47
2021/09/24 05:23:34;;;;;;;2.45;1.33;;;;;;;12.07;100.00;99781.97;5052505;28;20091;-47
2021/09/24 05:26:37;;;;;;;1.65;0.45;;;;;;;12.13;100.00;99773.63;5040128;28;20767;-47
2021/09/24 05:29:40;;;;;;;8.15;1.10;;;;;;;12.18;100.00;99770.94;5052640;28;20039;-47
2021/09/24 05:32:43;;;;;;;1.08;0.63;;;;;;;12.19;100.00;99755.72;5052906;28;20039;-47
2021/09/24 05:35:46;;;;;;;2.08;0.65;;;;;;;12.26;100.00;99757.31;5058542;28;20043;-47
2021/09/24 05:38:50;;;;;;;0.88;0.38;;;;;;;12.39;100.00;99751.38;5073062;28;20119;-47
2021/09/24 05:41:53;;;;;;;3.65;1.70;;;;;;;12.50;100.00;99731.94;5072711;28;20094;-47
2021/09/24 05:44:56;;;;;;;0.50;0.40;;;;;;;12.60;100.00;99713.78;5073050;28;20070;-47
2021/09/24 05:47:59;;;;;;;1.75;0.65;;;;;;;12.72;100.00;99732.16;5072714;28;20078;-47
2021/09/24 05:51:02;;;;;;;1.08;0.85;;;;;;;12.83;100.00;99752.63;5072384;28;20118;-51
2021/09/24 05:54:05;;;;;;;3.28;1.17;;;;;;;12.94;100.00;99751.94;5072353;28;20450;-47
2021/09/24 05:57:08;;;;;;;0.43;0.32;;;;;;;13.07;100.00;99755.16;5072005;28;20047;-47
2021/09/24 06:00:15;;;;;;;2.33;1.17;;;;;;;13.22;100.00;99752.22;5071523;28;20557;-47
2021/09/24 06:03:18;;;;;;;0.63;0.63;;;;;;;13.30;100.00;99739.31;5072555;28;20128;-47
2021/09/24 06:06:21;;;;;;;1.02;0.68;;;;;;;13.38;100.00;99734.81;5072275;28;20043;-47
2021/09/24 06:09:24;;;;;;;1.90;0.75;;;;;;;13.48;100.00;99739.72;5072450;28;20043;-47
2021/09/24 06:12:27;;;;;;;1.50;1.08;;;;;;;13.61;100.00;99731.66;5060059;28;20553;-47
2021/09/24 06:15:30;;;;;;;1.00;0.70;;;;;;;13.63;100.00;99729.13;5072510;28;20035;-47
2021/09/24 06:18:33;;;;;;;1.10;0.80;;;;;;;13.52;100.00;99723.47;5072365;28;20047;-47
2021/09/24 06:21:38;;;;;;;1.75;0.70;;;;;;;13.50;100.00;99714.03;5072167;28;20066;-47
2021/09/24 06:24:44;;;;;;;1.48;0.82;;;;;;;13.59;100.00;99717.41;5072524;28;20508;-47
2021/09/24 06:27:48;;;;;;;2.65;0.93;;;;;;;13.68;100.00;99724.84;5072334;28;20083;-47
2021/09/24 06:30:51;;;;;;;4.10;0.82;;;;;;;13.73;100.00;99714.94;5072002;28;20043;-47
2021/09/24 06:33:54;;;;;;;5.30;1.67;;;;;;;13.73;100.00;99706.56;5072314;28;20055;-47
2021/09/24 06:36:57;;;;;;;1.33;0.77;;;;;;;13.82;100.00;99723.16;5069864;28;20049;-47
2021/09/24 06:40:00;;;;;;;2.42;1.20;;;;;;;13.94;100.00;99725.50;5073377;28;20109;-47
2021/09/24 06:43:03;;;;;;;1.27;0.52;;;;;;;14.02;100.00;99725.78;5063782;28;20131;-47
2021/09/24 06:46:06;;;;;;;3.95;0.55;;;;;;;14.13;100.00;99720.22;5076445;28;20043;-47
2021/09/24 06:49:09;;;;;;;1.75;0.30;;;;;;;14.22;100.00;99717.19;5076613;28;20039;-47
2021/09/24 06:52:12;;;;;;;2.47;0.90;;;;;;;14.26;100.00;99712.13;5076079;28;20055;-47
2021/09/24 06:55:15;;;;;;;5.57;1.08;;;;;;;14.35;100.00;99709.13;5075792;28;20063;-47
2021/09/24 06:58:18;;;;;;;1.23;0.75;;;;;;;14.32;100.00;99712.94;5075868;28;20044;-47
2021/09/24 07:01:21;;;;;;;2.40;0.28;;;;;;;14.46;100.00;99708.38;5075544;28;20074;-48
2021/09/24 07:04:23;;;;;;;0.40;0.28;;;;;;;14.64;100.00;99705.88;5075362;28;20046;-47
2021/09/24 07:07:26;;;;;;;0.73;0.50;;;;;;;14.76;100.00;99715.84;5075687;28;20047;-47
2021/09/24 07:10:29;;;;;;;0.30;0.30;;;;;;;14.84;100.00;99708.44;5075486;28;20082;-47
2021/09/24 07:13:32;;;;;;;1.17;0.57;;;;;;;14.90;100.00;99712.03;5075356;28;20074;-48
2021/09/24 07:16:38;;;;;;;2.22;1.10;;;;;;;15.06;100.00;99708.47;5075354;28;20098;-47
2021/09/24 07:19:42;;;;;;;1.58;0.65;;;;;;;15.04;100.00;99718.66;5075447;28;20070;-48
2021/09/24 07:22:44;;;;;;;2.78;1.30;;;;;;;15.29;100.00;99717.63;5075051;28;20101;-47
2021/09/24 07:25:48;;;;;;;3.63;1.15;;;;;;;15.43;100.00;99711.03;5075480;28;20215;-47
2021/09/24 07:28:51;;;;;;;1.83;0.30;;;;;;;15.57;100.00;99698.00;5075553;28;20047;-47
2021/09/24 07:31:54;;;;;;;0.65;0.65;;;;;;;15.60;100.00;99708.94;5074884;28;20055;-48
2021/09/24 07:34:57;;;;;;;1.02;0.93;;;;;;;15.71;100.00;99710.97;5075097;28;20066;-48
2021/09/24 07:38:01;;;;;;;0.45;0.43;;;;;;;15.79;100.00;99711.97;5055158;28;20048;-47
2021/09/24 07:41:04;;;;;;;1.60;0.47;;;;;;;15.89;100.00;99704.78;5055556;28;20043;-48
2021/09/24 07:44:07;;;;;;;0.70;0.40;;;;;;;15.89;100.00;99690.75;5054985;28;20079;-48
2021/09/24 07:47:10;;;;;;;5.15;0.90;;;;;;;15.95;100.00;99699.91;5054552;28;20048;-48
2021/09/24 07:50:13;;;;;;;3.50;0.82;;;;;;;15.97;100.00;99696.59;5055102;28;20089;-48
2021/09/24 07:53:17;;;;;;;4.43;0.75;;;;;;;16.10;100.00;99711.59;5054829;28;20489;-48
2021/09/24 07:56:20;;;;;;;10.00;0.35;;;;;;;16.11;100.00;99709.56;5054994;28;20102;-48
2021/09/24 07:59:23;;;;;;;4.00;0.38;;;;;;;16.10;100.00;99711.59;5054494;28;20048;-48
2021/09/24 08:02:26;;;;;;;3.05;0.15;;;;;;;16.06;100.00;99715.97;5054249;28;20099;-48
2021/09/24 08:05:31;;;;;;;1.27;0.50;;;;;;;16.03;100.00;99706.53;5054309;28;20095;-49
2021/09/24 08:08:34;;;;;;;0.40;0.30;;;;;;;16.02;100.00;99710.63;5041856;28;20090;-49
2021/09/24 08:11:37;;;;;;;0.38;0.30;;;;;;;16.05;100.00;99698.34;5054661;28;20166;-48
2021/09/24 08:14:39;;;;;;;8.30;0.55;;;;;;;16.19;100.00;99700.06;5054699;28;20421;-48
2021/09/24 08:17:43;;;;;;;4.32;1.02;;;;;;;16.20;100.00;99698.78;5053864;28;20056;-46
2021/09/24 08:20:46;;;;;;;1.90;0.82;;;;;;;16.20;100.00;99698.78;5054142;28;20068;-47
2021/09/24 08:23:53;;;;;;;0.68;0.30;;;;;;;16.33;100.00;99690.53;5062236;28;20392;-47
2021/09/24 08:26:56;;;;;;;5.03;0.70;;;;;;;16.48;100.00;99688.16;5054238;28;20124;-49
2021/09/24 08:30:01;;;;;;;1.65;0.75;;;;;;;16.59;100.00;99692.97;5064707;28;20091;-48
2021/09/24 08:33:04;;;;;;;0.88;0.45;;;;;;;16.41;100.00;99708.41;5073985;28;20058;-48
2021/09/24 08:36:08;;;;;;;4.53;0.88;;;;;;;16.38;100.00;99708.66;5065274;28;20167;-48
2021/09/24 08:39:11;;;;;;;1.40;0.50;;;;;;;16.31;100.00;99704.34;5053830;28;20043;-48
2021/09/24 08:42:14;;;;;;;8.98;0.40;;;;;;;16.61;100.00;99705.22;5053986;28;20119;-48
2021/09/24 08:45:24;;;;;;;0.38;0.38;;;;;;;16.44;100.00;99712.97;5053669;28;20085;-48
2021/09/24 08:48:28;;;;;;;0.38;0.38;;;;;;;16.41;100.00;99702.00;5053633;28;20517;-48
2021/09/24 08:51:34;;;;;;;0.93;0.43;;;;;;;16.74;100.00;99690.56;5053619;28;20056;-48
2021/09/24 08:54:37;;;;;;;0.57;0.30;;;;;;;17.25;100.00;99683.25;5053364;28;20044;-48
2021/09/24 08:57:42;;;;;;;1.75;0.43;;;;;;;17.43;100.00;99693.84;5053399;28;20055;-48
2021/09/24 09:00:45;;;;;;;4.88;0.38;;;;;;;17.67;100.00;99688.22;5041133;28;20044;-48
2021/09/24 09:03:48;;;;;;;6.82;0.47;;;;;;;17.79;100.00;99692.47;5052558;28;20048;-49
2021/09/24 09:07:03;;;;;;;3.40;1.15;;;;;;;17.92;100.00;99694.63;5053488;28;20120;-48
2021/09/24 09:10:07;;;;;;;1.13;0.30;;;;;;;17.91;100.00;99693.13;5053192;28;20152;-48
2021/09/24 09:13:12;;;;;;;0.75;0.43;;;;;;;17.90;100.00;99700.78;5053028;28;20398;-48
2021/09/24 09:16:16;;;;;;;1.70;0.75;;;;;;;17.83;100.00;99698.56;5053120;28;20044;-48
2021/09/24 09:19:21;;;;;;;0.47;0.30;;;;;;;17.86;100.00;99697.53;5053139;28;20101;-46
2021/09/24 09:22:24;;;;;;;0.98;0.75;;;;;;;17.90;100.00;99697.22;5052935;28;20052;-49
2021/09/24 09:25:32;;;;;;;1.95;0.20;;;;;;;17.98;100.00;99687.63;5053072;28;20051;-49
2021/09/24 09:28:41;;;;;;;0.20;0.17;;;;;;;18.01;100.00;99686.56;5052849;28;20048;-48
2021/09/24 09:31:58;;;;;;;0.90;0.47;;;;;;;18.02;100.00;99681.69;5053064;28;20110;-49
2021/09/24 09:35:01;;;;;;;2.63;0.45;;;;;;;18.02;100.00;99681.69;5052805;28;20064;-48
2021/09/24 09:38:05;;;;;;;1.23;0.30;;;;;;;18.04;100.00;99679.13;5053230;28;20083;-48
2021/09/24 09:41:12;;;;;;;1.48;0.40;;;;;;;18.04;100.00;99685.50;5053071;28;20215;-49
2021/09/24 09:44:27;;;;;;;0.20;0.20;;;;;;;18.07;100.00;99695.72;5052497;28;20051;-49
2021/09/24 09:47:35;;;;;;;6.03;0.28;;;;;;;18.02;100.00;99693.72;5052601;28;20079;-48
2021/09/24 09:50:39;;;;;;;1.63;0.28;;;;;;;18.07;100.00;99695.72;5052681;28;20128;-49
2021/09/24 09:53:49;;;;;;;0.57;0.32;;;;;;;18.01;100.00;99697.84;5052407;28;20501;-48
2021/09/24 09:56:52;;;;;;;0.10;0.10;;;;;;;18.13;100.00;99687.94;5052911;28;20052;-48
2021/09/24 09:59:58;;;;;;;1.02;0.32;;;;;;;18.20;100.00;99692.22;5052517;28;20043;-49
2021/09/24 10:03:10;;;;;;;4.15;0.25;;;;;;;18.30;100.00;99695.44;5052433;28;20052;-49
2021/09/24 10:06:20;;;;;;;1.23;0.20;;;;;;;18.39;100.00;99692.22;5053004;28;20440;-48
2021/09/24 10:09:23;;;;;;;0.53;0.20;;;;;;;18.51;100.00;99688.75;5051847;28;20410;-47
2021/09/24 10:12:26;;;;;;;0.47;0.30;;;;;;;18.62;100.00;99687.84;5051924;28;20075;-49
2021/09/24 10:15:31;;;;;;;0.13;0.03;;;;;;;18.65;100.00;99692.41;5072684;28;20055;-49
2021/09/24 10:18:34;;;;;;;0.10;0.00;;;;;;;18.73;100.00;99687.69;5063574;28;20424;-49
2021/09/24 10:21:38;;;;;;;3.92;0.22;;;;;;;18.74;100.00;99680.72;5076389;28;20042;-49
2021/09/24 10:24:42;;;;;;;0.70;0.30;;;;;;;18.96;100.00;99685.25;5076187;28;20085;-49
2021/09/24 10:27:46;;;;;;;0.90;0.30;;;;;;;18.96;100.00;99685.25;5076308;28;20109;-49
2021/09/24 10:30:49;;;;;;;0.20;0.10;;;;;;;18.93;100.00;99685.03;5076127;28;20044;-49
2021/09/24 10:33:58;;;;;;;2.30;0.20;;;;;;;18.82;100.00;99673.91;5076119;28;20138;-49
2021/09/24 10:37:09;;;;;;;2.05;0.73;;;;;;;18.73;100.00;99682.03;5060592;28;20375;-49
2021/09/24 10:40:15;;;;;;;;;;;;;;;18.74;100.00;99673.03;5056421;28;20056;-49
2021/09/24 10:43:19;;;;;;;0.98;0.20;;;;;;;18.59;100.00;99683.25;5056345;28;19986;-49
2021/09/24 10:46:25;;;;;;;1.25;0.13;;;;;;;18.62;100.00;99677.31;5056377;28;20170;-49
2021/09/24 10:49:29;;;;;;;0.10;0.10;;;;;;;18.85;100.00;99672.09;5056161;28;20198;-51
2021/09/24 10:52:36;;;;;;;2.47;0.50;;;;;;;18.83;100.00;99674.69;5055535;28;20116;-52
2021/09/24 10:55:59;;;;;;;0.52;0.40;;;;;;;18.96;100.00;99677.56;5055811;28;20082;-52
2021/09/24 10:59:21;;;;;;;4.28;0.20;;;;;;;19.03;100.00;99670.53;5055712;28;20083;-51
2021/09/24 11:02:39;;;;;;;0.10;0.10;;;;;;;18.79;100.00;99674.25;5043270;28;20091;-51
2021/09/24 11:06:11;;;;;;;5.40;0.93;;;;;;;18.83;100.00;99680.34;5043141;28;20124;-51
2021/09/24 11:09:18;;;;;;;0.77;0.13;;;;;;;18.83;100.00;99674.69;5055633;28;20453;-52
2021/09/24 11:12:22;;;;;;;1.20;0.10;;;;;;;19.23;100.00;99670.66;5043460;28;20091;-51
2021/09/24 11:15:25;;;;;;;0.10;0.10;;;;;;;19.40;100.00;99668.38;5055663;28;20067;-53
2021/09/24 11:18:56;;;;;;;5.47;0.10;;;;;;;19.36;100.00;99676.38;5055550;28;20082;-52
2021/09/24 11:21:59;;;;;;;0.25;0.10;;;;;;;19.57;100.00;99668.81;5055196;28;20040;-51
2021/09/24 11:25:02;;;;;;;1.05;0.20;;;;;;;19.64;100.00;99673.06;5055249;28;20052;-52
2021/09/24 11:28:31;;;;;;;0.40;0.10;;;;;;;19.71;100.00;99672.38;5055506;28;20397;-51
2021/09/24 11:31:52;;;;;;;0.50;0.00;;;;;;;20.00;100.00;99662.06;5055052;28;20052;-52
2021/09/24 11:34:56;;;;;;;0.22;0.10;;;;;;;20.29;100.00;99652.47;5055055;28;20048;-52
2021/09/24 11:38:17;;;;;;;0.60;0.10;;;;;;;20.48;100.00;99655.91;5055397;28;20048;-53
2021/09/24 11:41:20;;;;;;;0.10;0.00;;;;;;;20.52;100.00;99653.47;5055194;28;20087;-53
2021/09/24 11:44:22;;;;;;;2.17;0.38;;;;;;;20.40;100.00;99655.03;5055304;28;20048;-53
2021/09/24 11:47:33;;;;;;;0.08;0.00;;;;;;;20.43;100.00;99662.44;5042279;28;20079;-53
2021/09/24 11:50:37;;;;;;;0.32;0.05;;;;;;;20.05;100.00;99666.84;5054766;28;20044;-51
2021/09/24 11:53:51;;;;;;;1.13;0.10;;;;;;;20.11;100.00;99661.81;5054733;28;20040;-52
2021/09/24 11:56:53;;;;;;;1.15;0.10;;;;;;;20.20;100.00;99659.34;5055071;28;20052;-51
2021/09/24 11:59:58;;;;;;;0.08;0.00;;;;;;;20.13;100.00;99653.56;5043011;28;20497;-51
2021/09/24 12:03:27;;;;;;;0.40;0.10;;;;;;;20.18;100.00;99655.50;5054789;28;20412;-52
2021/09/24 12:06:35;;;;;;;0.22;0.10;;;;;;;20.27;100.00;99657.91;5054534;28;20048;-50
2021/09/24 12:09:40;;;;;;;0.10;0.10;;;;;;;20.29;100.00;99660.97;5042732;28;20099;-51
2021/09/24 12:12:45;;;;;;;0.10;0.00;;;;;;;20.65;100.00;99649.84;5054777;28;20143;-50
2021/09/24 12:15:52;;;;;;;0.20;0.20;;;;;;;20.67;100.00;99650.81;5054701;28;20056;-52
2021/09/24 12:19:18;;;;;;;2.05;0.20;;;;;;;20.68;100.00;99651.59;5042176;28;20039;-50
2021/09/24 12:22:23;;;;;;;1.13;0.25;;;;;;;20.67;100.00;99647.22;5031242;28;20163;-48
2021/09/24 12:25:27;;;;;;;2.53;0.20;;;;;;;20.70;100.00;99643.28;5053570;28;20566;-47
2021/09/24 12:28:31;;;;;;;0.88;0.28;;;;;;;20.83;100.00;99638.34;5053831;28;20043;-48
2021/09/24 12:31:55;;;;;;;2.00;0.28;;;;;;;21.05;100.00;99632.13;5051778;28;20048;-47
2021/09/24 12:35:03;;;;;;;3.97;0.40;;;;;;;21.31;100.00;99622.69;5053175;28;20097;-47
2021/09/24 12:38:32;;;;;;;1.15;0.10;;;;;;;21.51;100.00;99621.13;5053343;28;20444;-47
2021/09/24 12:41:39;;;;;;;0.95;0.05;;;;;;;21.67;100.00;99623.53;5052407;28;20089;-47
2021/09/24 12:44:57;;;;;;;0.85;0.20;;;;;;;21.73;100.00;99620.53;5041170;28;20048;-47
2021/09/24 12:48:15;;;;;;;0.32;0.10;;;;;;;21.74;100.00;99616.38;5053871;28;20052;-47
2021/09/24 12:51:19;;;;;;;0.77;0.15;;;;;;;21.82;100.00;99617.97;5041328;28;20060;-47
2021/09/24 12:54:24;;;;;;;0.95;0.10;;;;;;;21.88;100.00;99612.88;5053768;28;20583;-48
2021/09/24 12:57:29;;;;;;;0.68;0.20;;;;;;;21.86;100.00;99614.75;5053415;28;20040;-47
2021/09/24 13:00:32;;;;;;;0.82;0.00;;;;;;;21.84;100.00;99614.56;5041163;28;20075;-48
2021/09/24 13:03:41;;;;;;;2.63;0.40;;;;;;;21.84;100.00;99614.56;5053191;28;20516;-50
2021/09/24 13:06:47;;;;;;;0.32;0.03;;;;;;;21.94;100.00;99607.03;5041588;28;20052;-48
2021/09/24 13:10:19;;;;;;;3.15;0.60;;;;;;;21.97;100.00;99605.16;5053666;28;20448;-48
2021/09/24 13:13:24;;;;;;;0.20;0.00;;;;;;;21.98;100.00;99607.47;5053248;28;20047;-48
2021/09/24 13:16:29;;;;;;;5.10;0.47;;;;;;;22.10;100.00;99610.69;5053013;28;20503;-48
2021/09/24 13:19:32;;;;;;;0.63;0.10;;;;;;;22.21;100.00;99602.63;5053431;28;20056;-50
2021/09/24 13:22:36;;;;;;;2.17;0.25;;;;;;;22.12;100.00;99600.31;5052790;28;20044;-52
2021/09/24 13:25:39;;;;;;;0.55;0.20;;;;;;;22.12;100.00;99600.31;5053239;28;20397;-51
2021/09/24 13:28:43;;;;;;;0.32;0.05;;;;;;;22.13;100.00;99604.69;5052976;28;20393;-51
2021/09/24 13:31:47;;;;;;;10.77;0.30;;;;;;;22.08;100.00;99599.94;5040907;28;20117;-51
2021/09/24 13:34:55;;;;;;;1.95;0.10;;;;;;;22.04;100.00;99602.38;5040663;28;20504;-51
2021/09/24 13:38:00;;;;;;;0.15;0.03;;;;;;;21.95;100.00;99590.78;5041199;28;20540;-52
2021/09/24 13:41:03;;;;;;;0.10;0.00;;;;;;;21.87;100.00;99593.59;5052735;28;20052;-50
2021/09/24 13:49:28;;;;;;;1.80;0.10;;;;;;;21.79;100.00;99595.59;5052280;28;20409;-51
2021/09/24 13:57:44;;;;;;;2.83;0.40;;;;;;;21.95;100.00;99585.13;4952372;29;20511;-51
2021/09/24 14:00:54;;;;;;;0.50;0.15;;;;;;;22.01;100.00;99582.88;5052197;28;20091;-51
2021/09/24 14:04:01;;;;;;;1.35;0.17;;;;;;;22.18;100.00;99577.44;5040430;28;20506;-51
2021/09/24 14:07:05;;;;;;;1.15;0.10;;;;;;;22.43;100.00;99584.91;5052941;28;20052;-51
2021/09/24 14:10:11;;;;;;;1.05;0.10;;;;;;;22.60;100.00;99576.63;5040551;28;20044;-51
2021/09/24 14:13:15;;;;;;;0.35;0.10;;;;;;;22.70;100.00;99568.31;5052565;28;20559;-52
2021/09/24 14:16:18;;;;;;;0.55;0.10;;;;;;;23.05;100.00;99566.59;5039908;28;20456;-51
2021/09/24 14:19:21;;;;;;;1.10;0.32;;;;;;;23.22;100.00;99569.59;5052635;28;20051;-51
2021/09/24 14:22:24;;;;;;;0.90;0.10;;;;;;;23.31;100.00;99563.34;5052143;28;20048;-53
2021/09/24 14:25:28;;;;;;;0.35;0.10;;;;;;;23.39;100.00;99558.44;5048934;28;20091;-51
2021/09/24 14:28:31;;;;;;;1.30;0.25;;;;;;;23.39;100.00;99564.13;5051914;28;20059;-51
2021/09/24 14:31:34;;;;;;;0.50;0.10;;;;;;;23.37;100.00;99552.56;5052327;28;20041;-51